Time;durP1;ratioP1;P1;durP2;ratioP2;P2;SDS_P1;SDS_P2;PMS_P1;PMS_P2;Temp;Humidity;BMP_temperature;BMP_pressure;BME280_temperature;BME280_humidity;BME280_pressure;Samples;Min_cycle;Max_cycle;Signal;HPM_P1;HPM_P2
2022/12/22 03:26:34;;;;;;;177.20;73.23;;;;;;;-141.28;100.00;50000.47;5070949;28;20434;-78
2022/12/22 03:29:01;;;;;;;169.20;64.73;;;;;;;-141.28;100.00;50012.25;5070671;28;20445;-75
2022/12/22 03:31:28;;;;;;;162.33;65.27;;;;;;;-141.28;100.00;50024.03;5070364;28;20564;-75
2022/12/22 03:33:56;;;;;;;160.43;66.47;;;;;;;-141.28;100.00;50035.81;5073598;28;20869;-74
2022/12/22 03:36:23;;;;;;;174.20;70.80;;;;;;;-141.28;100.00;50063.28;5074088;28;20504;-78
2022/12/22 03:38:50;;;;;;;177.80;70.80;;;;;;;-141.28;100.00;50082.91;5074337;28;20810;-77
2022/12/22 03:46:42;;;;;;;158.77;64.63;;;;;;;-141.28;100.00;50094.69;5074634;28;20446;-78
2022/12/22 03:49:11;;;;;;;145.63;57.00;;;;;;;-141.28;100.00;50090.75;5074011;28;20474;-75
2022/12/22 03:51:41;;;;;;;146.17;57.73;;;;;;;-141.28;100.00;50094.69;5074405;28;20903;-76
2022/12/22 03:54:08;;;;;;;165.23;63.97;;;;;;;-141.28;100.00;50110.38;5073799;28;20488;-77
2022/12/22 03:56:36;;;;;;;136.63;60.83;;;;;;;-141.28;100.00;50116.28;5073829;28;20478;-74
2022/12/22 03:59:03;;;;;;;147.87;59.87;;;;;;;-141.28;100.00;50122.16;5074003;28;20439;-75
2022/12/22 04:01:31;;;;;;;127.87;54.30;;;;;;;-141.28;100.00;50143.75;5073876;28;20450;-77
2022/12/22 04:03:58;;;;;;;139.67;58.67;;;;;;;-141.28;100.00;50137.88;5073748;28;21114;-76
2022/12/22 04:06:26;;;;;;;132.50;56.73;;;;;;;-141.28;100.00;50145.72;5073833;28;20462;-75
2022/12/22 04:08:53;;;;;;;130.30;54.63;;;;;;;-141.28;100.00;50184.97;5073881;28;20951;-78
2022/12/22 04:14:04;;;;;;;124.83;52.00;;;;;;;-141.28;100.00;50155.53;5062923;28;20430;-76
2022/12/22 04:16:31;;;;;;;147.70;57.50;;;;;;;-141.28;100.00;50169.28;5074093;28;20450;-78
2022/12/22 04:18:58;;;;;;;135.53;55.60;;;;;;;-141.28;100.00;50173.19;5074198;28;20447;-76
2022/12/22 04:21:27;;;;;;;139.20;57.30;;;;;;;-141.28;100.00;50200.66;5073197;28;20482;-77
2022/12/22 04:23:54;;;;;;;121.17;51.80;;;;;;;-141.28;100.00;50181.03;5073412;28;20451;-74
2022/12/22 04:26:23;;;;;;;122.13;53.03;;;;;;;-141.28;100.00;50177.13;5073181;28;20976;-74
2022/12/22 04:28:51;;;;;;;127.50;53.60;;;;;;;-141.28;100.00;50198.72;5073456;28;20507;-75
2022/12/22 04:31:17;;;;;;;132.90;53.70;;;;;;;-141.28;100.00;50186.94;5073054;28;20498;-76
2022/12/22 04:33:44;;;;;;;136.73;56.57;;;;;;;-141.28;100.00;50212.44;5073575;28;20454;-74
2022/12/22 04:36:11;;;;;;;142.73;56.67;;;;;;;-141.28;100.00;50239.94;5079748;28;20462;-75
2022/12/22 04:38:39;;;;;;;133.63;52.27;;;;;;;-141.28;100.00;50230.13;5077262;28;20945;-75
2022/12/22 04:41:07;;;;;;;146.73;55.83;;;;;;;-141.28;100.00;50239.94;5073100;28;20492;-79
2022/12/22 04:43:34;;;;;;;131.33;51.77;;;;;;;-141.28;100.00;50220.28;5072679;28;20508;-77
2022/12/22 04:46:01;;;;;;;137.93;55.00;;;;;;;-141.28;100.00;50239.94;5072515;28;20509;-75
2022/12/22 04:48:29;;;;;;;139.43;55.40;;;;;;;-141.28;100.00;50255.63;5072802;28;20508;-77
2022/12/22 04:50:57;;;;;;;137.80;54.47;;;;;;;-141.28;100.00;50283.09;5072981;28;20557;-74
2022/12/22 04:53:26;;;;;;;136.97;54.53;;;;;;;-141.28;100.00;50287.03;5073036;28;20451;-76
2022/12/22 04:55:57;;;;;;;129.97;52.90;;;;;;;-141.28;100.00;50255.63;5072576;28;20442;-80
2022/12/22 04:58:25;;;;;;;131.30;52.70;;;;;;;-141.28;100.00;50247.78;5072930;28;20468;-77
2022/12/22 05:00:52;;;;;;;125.83;53.47;;;;;;;-141.28;100.00;50230.13;5072459;28;20954;-77
2022/12/22 05:03:19;;;;;;;129.40;51.93;;;;;;;-141.28;100.00;50275.25;5072696;28;21028;-74
2022/12/22 05:05:46;;;;;;;124.10;50.03;;;;;;;-141.28;100.00;50287.03;5073183;28;20473;-79
2022/12/22 05:08:13;;;;;;;121.17;48.13;;;;;;;-141.28;100.00;50255.63;5072966;28;20463;-78
2022/12/22 05:10:42;;;;;;;116.23;51.57;;;;;;;-141.28;100.00;50283.09;5073138;28;20535;-78
2022/12/22 05:13:10;;;;;;;119.17;47.27;;;;;;;-141.28;100.00;50251.69;5072231;28;20887;-77
2022/12/22 05:15:38;;;;;;;121.10;48.60;;;;;;;-141.28;100.00;50267.41;5072480;28;20946;-75
2022/12/22 05:18:05;;;;;;;121.97;51.07;;;;;;;-141.28;100.00;50287.03;5072502;28;20447;-76
2022/12/22 05:20:32;;;;;;;122.07;49.73;;;;;;;-141.28;100.00;50267.41;5072517;28;20455;-76
2022/12/22 05:23:00;;;;;;;122.90;48.17;;;;;;;-141.28;100.00;50267.41;5072250;28;20438;-75
2022/12/22 05:25:27;;;;;;;122.57;48.50;;;;;;;-141.28;100.00;50294.88;5072812;28;20446;-76
2022/12/22 05:27:53;;;;;;;99.43;43.03;;;;;;;-141.28;100.00;50304.69;5071902;28;20976;-77
2022/12/22 05:30:22;;;;;;;114.20;41.03;;;;;;;-141.28;100.00;50306.66;5072104;28;20493;-75
2022/12/22 05:32:50;;;;;;;108.57;43.00;;;;;;;-141.28;100.00;50294.88;5072337;28;20459;-75
2022/12/22 05:35:17;;;;;;;110.77;43.60;;;;;;;-141.28;100.00;50287.03;5077913;28;20891;-75
2022/12/22 05:37:44;;;;;;;100.83;43.20;;;;;;;-141.28;100.00;50296.84;5071784;28;20948;-77
2022/12/22 05:40:12;;;;;;;106.10;41.93;;;;;;;-141.28;100.00;50289.00;5071904;28;20431;-75
2022/12/22 05:42:39;;;;;;;104.20;41.57;;;;;;;-141.28;100.00;50324.31;5071578;28;20541;-74
2022/12/22 05:45:09;;;;;;;115.90;42.53;;;;;;;-141.28;100.00;50336.09;5071832;28;20455;-78
2022/12/22 05:47:37;;;;;;;113.20;44.90;;;;;;;-141.28;100.00;50345.91;5071731;28;20823;-77
2022/12/22 05:50:05;;;;;;;134.70;56.43;;;;;;;-141.28;100.00;50330.22;5071703;28;20509;-77
2022/12/22 05:52:31;;;;;;;138.90;58.23;;;;;;;-141.28;100.00;50369.47;5071716;28;20451;-76
2022/12/22 05:54:58;;;;;;;138.97;51.83;;;;;;;-141.28;100.00;50351.81;5071582;28;20442;-76
2022/12/22 05:57:25;;;;;;;117.17;47.77;;;;;;;-141.28;100.00;50340.03;5071543;28;20454;-75
2022/12/22 05:59:52;;;;;;;110.10;44.60;;;;;;;-141.28;100.00;50367.50;5071810;28;20980;-78
2022/12/22 06:02:19;;;;;;;104.53;43.80;;;;;;;-141.28;100.00;50365.53;5071739;28;20484;-77
2022/12/22 06:04:47;;;;;;;110.87;47.07;;;;;;;-141.28;100.00;50338.06;5071401;28;20447;-76
2022/12/22 06:07:15;;;;;;;128.83;47.63;;;;;;;-141.28;100.00;50393.03;5071602;28;20442;-78
2022/12/22 06:09:42;;;;;;;123.33;46.87;;;;;;;-141.28;100.00;50385.16;5071618;28;20446;-76
2022/12/22 06:12:09;;;;;;;110.13;49.33;;;;;;;-141.28;100.00;50359.66;5070953;28;20886;-78
2022/12/22 06:14:36;;;;;;;109.80;47.57;;;;;;;-141.28;100.00;50396.94;5071147;28;20893;-76
2022/12/22 06:17:03;;;;;;;138.27;56.03;;;;;;;-141.28;100.00;50389.09;5071611;28;20450;-77
2022/12/22 06:19:30;;;;;;;138.10;58.87;;;;;;;-141.28;100.00;50436.19;5072273;28;20457;-79
2022/12/22 06:21:58;;;;;;;142.70;62.53;;;;;;;-141.28;100.00;50449.94;5071465;28;20451;-79
2022/12/22 06:24:26;;;;;;;162.23;63.13;;;;;;;-141.28;100.00;50569.69;5071620;28;20481;-75
2022/12/22 06:26:53;;;;;;;176.13;80.93;;;;;;;-141.28;100.00;50762.06;5071521;28;20450;-75
2022/12/22 06:29:19;;;;;;;204.43;82.60;;;;;;;-141.28;100.00;50891.63;5071291;28;20883;-75
2022/12/22 06:31:47;;;;;;;139.93;58.20;;;;;;;-141.28;100.00;51015.28;5071024;28;20494;-76
2022/12/22 06:34:16;;;;;;;205.93;79.97;;;;;;;-141.28;100.00;51017.25;5071142;28;20941;-77
2022/12/22 06:36:43;;;;;;;185.33;76.63;;;;;;;-141.28;100.00;51115.41;5071247;28;20999;-76
2022/12/22 06:39:13;;;;;;;152.23;63.20;;;;;;;-141.28;100.00;51260.69;5071393;28;20492;-75
2022/12/22 06:44:24;;;;;;;119.90;54.03;;;;;;;-141.28;100.00;51541.47;5071230;28;20438;-79
2022/12/22 06:46:51;;;;;;;132.90;53.87;;;;;;;-141.28;100.00;51441.31;5071396;28;20817;-76
2022/12/22 06:49:19;;;;;;;103.47;48.73;;;;;;;-141.28;100.00;51119.34;5070699;28;20463;-75
2022/12/22 06:51:47;;;;;;;76.30;39.27;;;;;;;-141.28;100.00;50840.56;5074641;28;20500;-76
2022/12/22 06:54:16;;;;;;;82.17;35.27;;;;;;;-141.28;100.00;50673.72;5071222;28;20455;-75
2022/12/22 06:56:43;;;;;;;62.30;32.53;;;;;;;-141.28;100.00;50396.94;5071369;28;20504;-75
2022/12/22 06:59:10;;;;;;;76.73;40.27;;;;;;;-141.28;100.00;49984.78;5072378;28;20957;-78
2022/12/22 07:01:37;;;;;;;85.30;44.43;;;;;;;-141.28;100.00;49839.56;5071888;28;20474;-79
2022/12/22 07:04:04;;;;;;;96.07;51.10;;;;;;;-141.28;100.00;49784.59;5061328;28;20455;-76
2022/12/22 07:06:31;;;;;;;113.20;55.77;;;;;;;-141.28;100.00;49849.38;5069609;28;20456;-76
2022/12/22 07:08:58;;;;;;;102.53;49.77;;;;;;;-141.28;100.00;49874.88;5071492;28;20479;-78
2022/12/22 07:11:27;;;;;;;96.93;50.10;;;;;;;-141.28;100.00;49759.09;5065673;28;20482;-78
2022/12/22 07:13:55;;;;;;;94.83;45.13;;;;;;;-141.28;100.00;49876.84;5075091;28;20438;-75
2022/12/22 07:16:22;;;;;;;79.00;39.90;;;;;;;-141.28;100.00;49863.09;5076127;28;20450;-77
2022/12/22 07:18:49;;;;;;;81.53;35.23;;;;;;;-141.28;100.00;49874.88;5075226;28;20820;-79
2022/12/22 07:21:15;;;;;;;74.60;35.60;;;;;;;-141.28;100.00;50075.06;5075000;28;20521;-75
2022/12/22 07:23:43;;;;;;;69.00;36.83;;;;;;;-141.28;100.00;49878.81;5074649;28;20477;-77
2022/12/22 07:26:12;;;;;;;60.87;29.73;;;;;;;-141.28;100.00;49886.66;5074615;28;20446;-78
2022/12/22 07:28:41;;;;;;;57.47;25.57;;;;;;;-141.28;100.00;50228.16;5074351;28;20434;-76
2022/12/22 07:31:10;;;;;;;47.43;23.33;;;;;;;-141.28;100.00;49929.81;5074419;28;20485;-80
2022/12/22 07:33:38;;;;;;;57.97;24.80;;;;;;;-141.28;100.00;49935.72;5074830;28;20937;-75
2022/12/22 07:36:07;;;;;;;58.30;30.93;;;;;;;-141.28;100.00;50491.16;5074659;28;20474;-78
2022/12/22 07:38:36;;;;;;;82.90;39.20;;;;;;;-141.28;100.00;49941.59;5061584;28;20957;-76
2022/12/22 07:42:43;;;;;;;90.57;42.37;;;;;;;-141.28;100.00;49971.03;5074237;28;20542;-79
2022/12/22 07:43:51;;;;;;;71.43;33.30;;;;;;;-141.28;100.00;50039.72;5074092;28;20477;-75
2022/12/22 07:46:18;;;;;;;81.90;33.67;;;;;;;-141.28;100.00;50059.34;5061345;28;20442;-76
2022/12/22 07:51:32;;;;;;;76.43;35.87;;;;;;;-141.28;100.00;50200.66;5074656;28;20485;-79
2022/12/22 07:53:59;;;;;;;68.03;32.83;;;;;;;-141.28;100.00;50255.63;5073786;28;20458;-79
2022/12/22 07:56:26;;;;;;;67.30;33.10;;;;;;;-141.28;100.00;50342.00;5074177;28;20459;-75
2022/12/22 07:58:54;;;;;;;58.83;26.43;;;;;;;-141.28;100.00;50389.09;5073921;28;20443;-77
2022/12/22 08:01:21;;;;;;;51.77;23.70;;;;;;;-141.28;100.00;50455.84;5079964;28;20504;-76
2022/12/22 08:03:48;;;;;;;51.40;23.40;;;;;;;-141.28;100.00;50330.22;5076718;28;20492;-77
2022/12/22 08:06:15;;;;;;;42.10;21.97;;;;;;;-141.28;100.00;50583.41;5076097;28;20450;-75
2022/12/22 08:08:43;;;;;;;50.30;20.43;;;;;;;-141.28;100.00;50630.53;5074660;28;20442;-75
2022/12/22 08:11:10;;;;;;;47.90;23.20;;;;;;;-141.28;100.00;50663.91;5074018;28;21012;-76
2022/12/22 08:13:37;;;;;;;52.57;23.73;;;;;;;-141.28;100.00;50687.47;5073775;28;20453;-77
2022/12/22 08:16:07;;;;;;;47.47;21.43;;;;;;;-141.28;100.00;50811.13;5073858;28;20515;-75
2022/12/22 08:18:34;;;;;;;43.33;21.37;;;;;;;-141.28;100.00;50887.69;5073695;28;20545;-78
2022/12/22 08:21:02;;;;;;;44.60;22.87;;;;;;;-141.28;100.00;50938.72;5056296;28;20953;-76
2022/12/22 08:23:29;;;;;;;58.20;26.93;;;;;;;-141.28;100.00;50954.44;5074214;28;21014;-75
2022/12/22 08:26:01;;;;;;;46.20;22.63;;;;;;;-141.28;100.00;50997.63;5073843;28;20447;-76
2022/12/22 08:28:29;;;;;;;45.73;23.87;;;;;;;-141.28;100.00;50970.13;5073946;28;20473;-75
2022/12/22 08:30:59;;;;;;;51.07;22.73;;;;;;;-141.28;100.00;50934.81;5073688;28;20601;-77
2022/12/22 08:33:27;;;;;;;50.50;23.00;;;;;;;-141.28;100.00;50891.63;5074418;28;20487;-78
2022/12/22 08:35:55;;;;;;;46.10;22.50;;;;;;;-141.28;100.00;50840.56;5077473;28;20508;-75
2022/12/22 08:38:22;;;;;;;52.60;22.40;;;;;;;-141.28;100.00;50520.59;5078634;28;20454;-76
2022/12/22 08:40:50;;;;;;;47.80;22.90;;;;;;;-141.28;100.00;50447.97;5079323;28;20965;-77
2022/12/22 08:43:18;;;;;;;44.87;22.97;;;;;;;-141.28;100.00;50420.50;5077415;28;20538;-76
2022/12/22 08:45:45;;;;;;;47.73;23.57;;;;;;;-141.28;100.00;50379.28;5073267;28;20831;-78
2022/12/22 08:48:12;;;;;;;43.67;22.77;;;;;;;-141.28;100.00;50275.25;5074010;28;20458;-78
2022/12/22 08:50:40;;;;;;;51.43;23.40;;;;;;;-141.28;100.00;50192.81;5073657;28;20543;-77
2022/12/22 08:53:09;;;;;;;47.63;24.40;;;;;;;-141.28;100.00;50102.53;5074250;28;20457;-77
2022/12/22 08:55:37;;;;;;;50.70;23.43;;;;;;;-141.28;100.00;49953.38;5073775;28;20971;-76
2022/12/22 08:58:04;;;;;;;51.10;25.10;;;;;;;-141.28;100.00;49916.09;5078860;28;20457;-76
2022/12/22 09:00:31;;;;;;;53.53;24.13;;;;;;;-141.28;100.00;49876.84;5079613;28;20439;-75
2022/12/22 09:02:57;;;;;;;43.60;21.10;;;;;;;-141.28;100.00;49784.59;5078243;28;20450;-76
2022/12/22 09:05:25;;;;;;;49.63;24.23;;;;;;;-141.28;100.00;49721.81;5073103;28;20451;-79
2022/12/22 09:07:53;;;;;;;55.83;26.97;;;;;;;-141.28;100.00;49623.69;5072890;28;20458;-77
2022/12/22 09:10:20;;;;;;;62.30;27.10;;;;;;;-141.28;100.00;49606.03;5072713;28;20451;-81
2022/12/22 09:12:47;;;;;;;59.17;27.07;;;;;;;-141.28;100.00;49533.41;5072756;28;20494;-80
2022/12/22 09:15:13;;;;;;;54.33;26.33;;;;;;;-141.28;100.00;49462.78;5072424;28;20470;-75
2022/12/22 09:17:42;;;;;;;52.03;24.30;;;;;;;-141.28;100.00;49427.44;5072545;28;20809;-80
2022/12/22 09:20:10;;;;;;;54.20;24.40;;;;;;;-141.28;100.00;49376.44;5072255;28;20453;-78
2022/12/22 09:22:37;;;;;;;47.97;25.23;;;;;;;-141.28;100.00;49380.34;5074382;28;20450;-75
2022/12/22 09:25:06;;;;;;;54.07;24.50;;;;;;;-141.28;100.00;49333.25;5073269;28;20454;-78
2022/12/22 09:27:34;;;;;;;51.57;23.77;;;;;;;-141.28;100.00;49290.09;5072300;28;20467;-78
2022/12/22 09:30:01;;;;;;;48.90;23.57;;;;;;;-141.28;100.00;49325.41;5071852;28;20445;-78
2022/12/22 09:32:28;;;;;;;58.97;24.67;;;;;;;-141.28;100.00;49278.31;5054387;28;20565;-78
2022/12/22 09:34:55;;;;;;;59.00;27.10;;;;;;;-141.28;100.00;49290.09;5071315;28;20451;-76
2022/12/22 09:37:21;;;;;;;49.03;25.97;;;;;;;-141.28;100.00;49262.63;5072074;28;20484;-79
2022/12/22 09:39:48;;;;;;;53.83;25.60;;;;;;;-141.28;100.00;49258.69;5072004;28;20451;-76
2022/12/22 09:42:20;;;;;;;52.43;26.13;;;;;;;-141.28;100.00;49321.50;5072390;28;20442;-76
2022/12/22 09:44:50;;;;;;;59.57;25.90;;;;;;;-141.28;100.00;49439.22;5072800;28;20641;-76
2022/12/22 09:47:23;;;;;;;49.60;26.73;;;;;;;-141.28;100.00;49480.44;5072167;28;20468;-80
2022/12/22 09:49:51;;;;;;;52.03;27.43;;;;;;;-141.28;100.00;49560.88;5071932;28;20467;-76
2022/12/22 09:52:28;;;;;;;47.43;24.27;;;;;;;-141.28;100.00;49568.75;5071468;28;20479;-75
2022/12/22 09:54:56;;;;;;;54.33;25.40;;;;;;;-141.28;100.00;49680.59;5072184;28;20450;-77
2022/12/22 09:57:29;;;;;;;52.87;24.23;;;;;;;-141.28;100.00;49666.84;5071961;28;20892;-75
2022/12/22 09:59:58;;;;;;;56.57;26.37;;;;;;;-141.28;100.00;49678.63;5071585;28;20976;-80
2022/12/22 10:02:33;;;;;;;51.57;26.00;;;;;;;-141.28;100.00;49749.28;5071285;28;20466;-76
2022/12/22 10:05:27;;;;;;;56.87;26.50;;;;;;;-141.28;100.00;49798.34;5071557;28;20882;-77
2022/12/22 10:07:59;;;;;;;62.60;26.30;;;;;;;-141.28;100.00;49823.84;5072960;28;20443;-76
2022/12/22 10:10:28;;;;;;;58.27;27.67;;;;;;;-141.28;100.00;49827.78;5071866;28;20443;-74
2022/12/22 10:13:16;;;;;;;62.27;28.97;;;;;;;-141.28;100.00;49910.19;5071777;28;20486;-77
2022/12/22 10:15:43;;;;;;;57.17;26.50;;;;;;;-141.28;100.00;49945.53;5058966;28;20801;-77
2022/12/22 10:18:12;;;;;;;53.17;27.13;;;;;;;-141.28;100.00;50020.09;5071409;28;20932;-77
2022/12/22 10:20:40;;;;;;;66.83;27.70;;;;;;;-141.28;100.00;50059.34;5071550;28;20453;-80
2022/12/22 10:23:16;;;;;;;66.00;29.10;;;;;;;-141.28;100.00;50059.34;5071592;28;20443;-76
2022/12/22 10:25:59;;;;;;;54.23;28.10;;;;;;;-141.28;100.00;50183.00;5072360;28;20454;-76
2022/12/22 10:28:33;;;;;;;51.90;27.33;;;;;;;-141.28;100.00;50338.06;5071764;28;20458;-77
2022/12/22 10:31:17;;;;;;;59.40;27.80;;;;;;;-141.28;100.00;50510.78;5071397;28;20492;-79
2022/12/22 10:33:45;;;;;;;57.07;28.53;;;;;;;-141.28;100.00;50616.78;5071301;28;20998;-78
2022/12/22 10:36:13;;;;;;;57.60;28.87;;;;;;;-141.28;100.00;50856.28;5071221;28;20530;-76
2022/12/22 10:38:54;;;;;;;62.27;28.20;;;;;;;-141.28;100.00;50868.06;5072593;28;20439;-77
2022/12/22 10:41:23;;;;;;;61.07;28.33;;;;;;;-141.28;100.00;50936.75;5072123;28;20889;-76
2022/12/22 10:43:56;;;;;;;64.10;29.80;;;;;;;-141.28;100.00;50791.50;5074399;28;20457;-76
2022/12/22 10:46:35;;;;;;;62.27;28.57;;;;;;;-141.28;100.00;50569.69;5063304;28;20458;-76
2022/12/22 10:49:17;;;;;;;53.90;28.57;;;;;;;-141.28;100.00;50104.50;5074721;28;20485;-77
2022/12/22 10:51:46;;;;;;;74.17;31.43;;;;;;;-141.28;100.00;49710.03;5075478;28;20485;-78
2022/12/22 10:54:30;;;;;;;70.90;32.03;;;;;;;-141.28;100.00;49580.50;5075759;28;20447;-78
2022/12/22 10:57:06;;;;;;;72.93;32.10;;;;;;;-141.28;100.00;49696.28;5062534;28;20450;-75
2022/12/22 10:59:48;;;;;;;65.60;32.47;;;;;;;-141.28;100.00;49708.06;5075153;28;20196;-76
2022/12/22 11:02:32;;;;;;;74.67;32.40;;;;;;;-141.28;100.00;49702.19;5075525;28;20212;-77
2022/12/22 11:05:05;;;;;;;66.67;32.70;;;;;;;-141.28;100.00;49759.09;5074969;28;20208;-76
2022/12/22 11:07:34;;;;;;;68.47;34.00;;;;;;;-141.28;100.00;49715.91;5076018;28;20211;-79
2022/12/22 11:10:02;;;;;;;62.27;32.57;;;;;;;-141.28;100.00;49619.75;5076825;28;20663;-76
2022/12/22 11:12:40;;;;;;;57.97;32.13;;;;;;;-141.28;100.00;49607.97;5075886;28;20251;-76
2022/12/22 11:15:17;;;;;;;62.20;31.83;;;;;;;-141.28;100.00;49517.72;5075737;28;20570;-79
2022/12/22 11:17:54;;;;;;;61.50;32.60;;;;;;;-141.28;100.00;50065.25;5075806;28;20663;-77
2022/12/22 11:20:41;;;;;;;58.47;34.47;;;;;;;-141.28;100.00;49592.28;5075923;28;20258;-75
2022/12/22 11:23:15;;;;;;;65.53;33.77;;;;;;;-141.28;94.12;49494.16;5077367;28;20247;-74
2022/12/22 11:25:55;;;;;;;61.47;32.23;;;;;;;-141.28;85.01;49454.94;5077544;28;20667;-79
2022/12/22 11:28:39;;;;;;;58.50;33.60;;;;;;;-141.28;75.08;49462.78;5083096;28;20279;-75
2022/12/22 11:31:32;;;;;;;69.37;35.30;;;;;;;-141.28;72.40;49472.59;5081381;28;20638;-75
2022/12/22 11:34:09;;;;;;;63.33;36.33;;;;;;;-141.28;71.66;49466.69;5083683;28;20204;-76
2022/12/22 11:36:53;;;;;;;63.77;34.67;;;;;;;-141.28;68.20;49490.25;5082143;28;20199;-74
2022/12/22 11:39:32;;;;;;;68.80;36.17;;;;;;;-141.28;66.09;49466.69;5083657;28;20195;-73
2022/12/22 11:42:09;;;;;;;62.17;35.60;;;;;;;-141.28;67.29;49539.31;5079218;28;20204;-76
2022/12/22 11:44:45;;;;;;;71.23;35.23;;;;;;;-141.28;68.18;49490.25;5077748;28;20222;-77
2022/12/22 11:47:25;;;;;;;72.47;35.30;;;;;;;-141.28;64.51;49454.94;5077486;28;20250;-78
2022/12/22 11:50:16;;;;;;;73.73;36.93;;;;;;;-141.28;62.20;49423.53;5078238;28;20319;-74
2022/12/22 11:52:53;;;;;;;62.53;34.03;;;;;;;-141.28;62.76;49407.84;5078839;28;20784;-77
2022/12/22 11:55:29;;;;;;;64.40;34.90;;;;;;;-141.28;59.75;49403.91;5075663;28;20740;-77
2022/12/22 11:58:17;;;;;;;64.17;35.10;;;;;;;-141.28;58.36;49496.13;5068368;28;20710;-76
2022/12/22 12:00:56;;;;;;;65.13;34.27;;;;;;;-141.28;57.42;49337.19;5082876;28;20202;-76
2022/12/22 12:04:13;;;;;;;62.53;35.03;;;;;;;-141.28;56.13;49347.00;5084820;28;20208;-76
2022/12/22 12:07:08;;;;;;;57.23;33.90;;;;;;;-141.28;54.58;49329.34;5067499;28;20215;-75
2022/12/22 12:09:48;;;;;;;68.93;34.03;;;;;;;-141.28;53.36;49317.56;5079052;28;20667;-79
2022/12/22 12:12:26;;;;;;;66.97;34.03;;;;;;;-141.28;51.61;49148.81;5074515;28;20243;-78
2022/12/22 12:15:06;;;;;;;58.27;35.10;;;;;;;-141.28;50.70;49244.97;5077720;28;20200;-76
2022/12/22 12:17:48;;;;;;;59.70;35.80;;;;;;;-141.28;50.20;49284.22;5081216;28;20204;-74
2022/12/22 12:20:39;;;;;;;57.27;35.53;;;;;;;-141.28;50.78;49280.28;5082274;28;20215;-76
2022/12/22 12:23:23;;;;;;;68.27;35.60;;;;;;;-141.28;50.36;49294.03;5071072;28;20234;-73
2022/12/22 12:26:00;;;;;;;62.20;34.13;;;;;;;-141.28;50.12;49309.72;5080422;28;20698;-78
2022/12/22 12:28:34;;;;;;;67.67;35.50;;;;;;;-141.28;50.18;49258.69;5068757;28;20203;-77
2022/12/22 12:31:01;;;;;;;68.10;33.50;;;;;;;-141.28;49.80;49329.34;5073429;28;20224;-77
2022/12/22 12:33:36;;;;;;;64.90;35.07;;;;;;;-141.28;50.25;49311.69;5073545;28;20232;-75
2022/12/22 12:36:12;;;;;;;61.63;33.67;;;;;;;-141.28;48.76;49243.00;5073438;28;20200;-76
2022/12/22 12:38:48;;;;;;;61.00;35.63;;;;;;;-141.28;47.05;49209.66;5073588;28;20286;-80
2022/12/22 12:41:24;;;;;;;61.67;36.30;;;;;;;-141.28;45.84;49176.28;5073250;28;20204;-78
2022/12/22 12:43:53;;;;;;;59.30;33.70;;;;;;;-141.28;45.99;49164.53;5073662;28;20200;-76
2022/12/22 12:47:04;;;;;;;54.10;34.20;;;;;;;-141.28;44.60;49148.81;5060365;28;20261;-77
2022/12/22 12:49:54;;;;;;;54.60;34.53;;;;;;;-141.28;44.45;49164.53;5073351;28;20233;-79
2022/12/22 12:52:53;;;;;;;65.87;35.77;;;;;;;-141.28;44.28;49172.38;5073217;28;20223;-78
2022/12/22 12:55:26;;;;;;;63.10;34.60;;;;;;;-141.28;44.85;49188.06;5071907;28;20691;-75
2022/12/22 12:57:53;;;;;;;57.37;35.37;;;;;;;-141.28;44.38;49172.38;5072656;28;20207;-79
2022/12/22 13:00:48;;;;;;;63.50;36.87;;;;;;;-141.28;44.58;49203.75;5072870;28;20210;-76
2022/12/22 13:03:37;;;;;;;57.27;35.27;;;;;;;-141.28;45.39;49199.84;5059708;28;20232;-79
2022/12/22 13:06:06;;;;;;;56.47;35.33;;;;;;;-141.28;44.94;49219.47;5061735;28;20202;-77
2022/12/22 13:08:33;;;;;;;54.70;36.60;;;;;;;-141.28;44.90;49203.75;5072773;28;20625;-77
2022/12/22 13:11:31;;;;;;;63.73;36.23;;;;;;;-141.28;45.61;49260.66;5072496;28;20198;-76
2022/12/22 13:13:58;;;;;;;51.03;34.87;;;;;;;-141.28;45.78;49184.13;5062640;28;20706;-80
2022/12/22 13:16:36;;;;;;;56.80;35.43;;;;;;;-141.28;46.10;49274.41;5072412;28;20202;-78
2022/12/22 13:19:14;;;;;;;60.70;35.73;;;;;;;-141.28;47.59;49321.50;5072491;28;20563;-79
2022/12/22 13:21:44;;;;;;;58.70;35.17;;;;;;;-141.28;48.33;49282.25;5072381;28;20220;-77
2022/12/22 13:24:24;;;;;;;55.00;32.83;;;;;;;-141.28;49.86;49360.75;5072518;28;20230;-77
2022/12/22 13:26:54;;;;;;;51.87;33.93;;;;;;;-141.28;50.96;49360.75;5072260;28;20207;-79
2022/12/22 13:29:29;;;;;;;58.13;34.57;;;;;;;-141.28;52.81;49439.22;5071952;28;20710;-80
2022/12/22 13:32:01;;;;;;;56.00;33.17;;;;;;;-141.28;55.00;49466.69;5061672;28;20216;-77
2022/12/22 13:34:37;;;;;;;63.47;33.90;;;;;;;-141.28;56.94;49505.94;5072311;28;20200;-79
2022/12/22 13:37:19;;;;;;;56.57;33.20;;;;;;;-141.28;60.24;49525.56;5072444;28;20208;-77
2022/12/22 13:40:09;;;;;;;59.43;32.67;;;;;;;-141.28;66.26;49588.34;5072077;28;20281;-77
2022/12/22 13:42:40;;;;;;;68.17;32.30;;;;;;;-141.28;70.84;49631.53;5071816;28;20244;-78
2022/12/22 13:45:15;;;;;;;53.57;30.00;;;;;;;-141.28;76.13;49637.41;5071872;28;20655;-78
2022/12/22 13:47:44;;;;;;;61.83;32.00;;;;;;;-141.28;80.95;49584.44;5071549;28;20669;-76
2022/12/22 13:50:18;;;;;;;49.73;29.87;;;;;;;-141.28;84.68;49684.53;5072206;28;20749;-78
2022/12/22 13:52:46;;;;;;;60.03;29.90;;;;;;;-141.28;88.27;49706.09;5071870;28;20223;-79
2022/12/22 13:55:15;;;;;;;53.80;27.77;;;;;;;-141.28;89.90;49941.59;5071923;28;20295;-77
2022/12/22 13:57:44;;;;;;;53.27;28.53;;;;;;;-141.28;91.17;49717.88;5072110;28;20200;-76
2022/12/22 14:00:25;;;;;;;59.60;28.73;;;;;;;-141.28;92.94;49725.72;5071423;28;20258;-78
2022/12/22 14:02:53;;;;;;;59.07;27.07;;;;;;;-141.28;99.39;49792.44;5071723;28;20245;-77
2022/12/22 14:05:21;;;;;;;56.13;27.93;;;;;;;-141.28;100.00;49827.78;5071925;28;20197;-80
2022/12/22 14:08:02;;;;;;;63.67;28.53;;;;;;;-141.28;100.00;49761.06;5072432;28;20287;-77
2022/12/22 14:10:36;;;;;;;57.30;28.00;;;;;;;-141.28;100.00;49816.00;5072885;28;20257;-76
2022/12/22 14:13:17;;;;;;;52.70;29.67;;;;;;;-141.28;100.00;49902.34;5071364;28;20231;-76
2022/12/22 14:15:45;;;;;;;71.60;29.73;;;;;;;-141.28;100.00;49702.19;5071558;28;20219;-77
2022/12/22 14:18:17;;;;;;;58.20;29.23;;;;;;;-141.28;100.00;49918.06;5071316;28;20272;-79
2022/12/22 14:20:47;;;;;;;55.07;29.57;;;;;;;-141.28;100.00;49880.75;5071391;28;20262;-77
2022/12/22 14:23:18;;;;;;;61.40;30.73;;;;;;;-141.28;100.00;49941.59;5071632;28;20211;-77
2022/12/22 14:25:49;;;;;;;62.47;33.53;;;;;;;-141.28;100.00;49945.53;5071731;28;20208;-76
2022/12/22 14:28:22;;;;;;;106.50;40.73;;;;;;;-141.28;100.00;49937.69;5072532;28;20227;-75
2022/12/22 14:30:53;;;;;;;101.60;39.33;;;;;;;-141.28;100.00;49912.16;5074214;28;20228;-75
2022/12/22 14:33:28;;;;;;;98.70;38.50;;;;;;;-141.28;100.00;50322.34;5078095;28;20482;-74
2022/12/22 14:36:16;;;;;;;132.80;57.33;;;;;;;-141.28;100.00;49925.91;5075232;28;20830;-79
2022/12/22 14:38:47;;;;;;;88.37;32.57;;;;;;;-141.28;100.00;49957.31;5071706;28;20205;-77
2022/12/22 14:44:13;;;;;;;69.00;30.40;;;;;;;-141.28;100.00;49984.78;5075492;28;20441;-76
2022/12/22 14:46:40;;;;;;;68.93;31.13;;;;;;;-141.28;100.00;49965.16;5077005;28;20446;-78
2022/12/22 14:49:14;;;;;;;73.67;30.53;;;;;;;-141.28;100.00;49996.56;5071034;28;20462;-74
2022/12/22 14:51:53;;;;;;;63.53;28.60;;;;;;;-141.28;100.00;49878.81;5071535;28;20520;-75
2022/12/22 14:54:25;;;;;;;51.87;26.93;;;;;;;-141.28;100.00;49874.88;5071019;28;20558;-76
2022/12/22 14:56:55;;;;;;;66.00;28.90;;;;;;;-141.28;100.00;50039.72;5071258;28;20952;-77